ペトロパブロフスク・カムチャツキー の空港の天気 - METARとTAF

ペトロパブロフスク・カムチャツキー空港 ( UHPP / PKC ) - ロシア ペトロパブロフスク・カムチャツキー
飛行場実況気象(Metar)
観測時間12/14 17:00 MAGT (12/14 06:00 UTC)
風向・風速北 1m/s
視程10km以上
天気現象
なし
気温-17℃
湿度60%
気圧1004hPa
METARUHPP 140600Z 01001MPS 9999 NSC M17/M23 Q1004 R34L/820355 NOSIG RMK QFE750/1000
過去の天気等 Google飛行場航空写真 Wunderground天気予報

過去48時間のMETAR

飛行場予報(TAF)
発表時間: 12/14 15:31 MAGT (12/14 04:31 UTC)
予報対象時間: 14日17時 MAGT ~ 15日23時 MAGT
風向・風速北 3m/s 瞬間風速 12m/s
視程10km以上
なし
TAF UHPP 140431Z 1406/1512 01003G12MPS 9999 NSC TXM12/1503Z TNM21/1415Z